Flight Track Log - Related Links

Times and Time Zones

All times are in EDT time to prevent confusion due to time zone crossing. See the N850UA flight status page for this flight to view local times or setup timezone preferences in your user account.

Time Position Orientation Groundspeed Altitude Reporting Facility
EDT Latitude Longitude Course Direction KTS MPH feet Rate Location/Type
Tue 09:55:01 AM 43.6500 -79.6167 267° West 20 23 900  Level Toronto Center
Tue 09:56:00 AM 43.6167 -79.6500 216° Southwest 170 196 3,100 2,571 Climbing Toronto Center
Tue 09:57:00 AM 43.6000 -79.7000 245° Southwest 210 242 6,000 1,950 Climbing Toronto Center
Tue 09:58:00 AM 43.6167 -79.8000 283° West 230 265 7,000 500 Climbing Toronto Center
Tue 09:59:00 AM 43.6998 -80.1654 283° West  Level FlightAware Approximate
Tue 09:59:00 AM 43.6333 -79.8833 285° West 230 265 7,000  Level Toronto Center
Tue 10:00:00 AM 43.7060 -80.2767 278° West  Level FlightAware Approximate
Tue 10:00:00 AM 43.6333 -79.9833 270° West 230 265 8,100  Level Toronto Center
Tue 10:01:00 AM 43.6812 -80.4090 267° West  Level Estimated
Tue 10:01:00 AM 43.6500 -80.0500 289° West 240 276 10,700  Level Toronto Center
Tue 10:02:00 AM 43.6833 -80.1667 292° West 270 311 14,000 3,100 Climbing Toronto Center
Tue 10:03:00 AM 43.7000 -80.2500 285° West 270 311 16,900 2,400 Climbing Toronto Center
Tue 10:04:00 AM 43.7167 -80.3667 281° West 280 322 18,800 1,850 Climbing Toronto Center
Tue 10:05:00 AM 43.7333 -80.4833 281° West 300 345 20,600 1,750 Climbing Toronto Center
Tue 10:06:00 AM 43.7333 -80.6000 270° West 320 368 22,300 1,750 Climbing Toronto Center
Tue 10:07:00 AM 43.7000 -80.7167 248° West 330 380 24,100 1,500 Climbing Toronto Center
Tue 10:08:00 AM 43.6667 -80.8500 251° West 340 391 25,300 1,450 Climbing Toronto Center
Tue 10:09:00 AM 43.6333 -81.0000 253° West 360 414 27,000 1,550 Climbing Toronto Center
Tue 10:10:00 AM 43.6000 -81.1333 251° West 370 426 28,400 1,400 Climbing Toronto Center
Tue 10:11:00 AM 43.5667 -81.2667 251° West 380 437 29,800 1,350 Climbing Toronto Center
Tue 10:12:00 AM 43.5500 -81.4000 260° West 380 437 31,100 1,550 Climbing Toronto Center
Tue 10:13:00 AM 43.5167 -81.5333 251° West 380 437 32,900 1,800 Climbing Toronto Center
Tue 10:14:00 AM 43.4833 -81.6833 253° West 370 426 34,700 1,400 Climbing Toronto Center
Tue 10:15:00 AM 43.4667 -81.8000 259° West 360 414 35,700 1,100 Climbing Toronto Center
Tue 10:16:00 AM 43.4167 -81.9333 243° Southwest 350 403 36,900 1,000 Climbing Toronto Center
Tue 10:17:00 AM 43.4000 -82.0667 260° West 350 403 37,700 759 Climbing Toronto Center
Tue 10:17:27 AM 43.3939 -82.1258 262° West 359 413 38,000 300 Climbing Cleveland Center
Tue 10:18:00 AM 43.3667 -82.1833 237° Southwest 350 403 38,000  Level Toronto Center
Tue 10:19:00 AM 43.3333 -82.3167 251° West 350 403 38,000  Level Toronto Center
Tue 10:20:00 AM 43.3167 -82.4500 260° West 350 403 38,000  Level Toronto Center
Tue 10:21:00 AM 43.2833 -82.5667 249° West 350 403 38,000  Level Toronto Center
Tue 10:21:27 AM 43.2756 -82.6306 261° West 359 413 38,000  Level Cleveland Center
Tue 10:22:27 AM 43.2442 -82.7578 251° West 359 413 38,000  Level Cleveland Center
Tue 10:23:27 AM 43.2106 -82.8819 250° West 354 407 38,000  Level Cleveland Center
Tue 10:24:27 AM 43.1747 -83.0031 248° West 349 402 38,000  Level Cleveland Center
Tue 10:25:27 AM 43.1406 -83.1325 250° West 349 402 38,000  Level Cleveland Center
Tue 10:26:27 AM 43.1067 -83.2533 249° West 349 402 38,000  Level Cleveland Center
Tue 10:27:27 AM 43.0703 -83.3825 249° West 354 407 38,000  Level Cleveland Center
Tue 10:28:27 AM 43.0339 -83.5058 248° West 354 407 38,000  Level Cleveland Center
Tue 10:29:27 AM 42.9992 -83.6322 249° West 354 407 38,000 -300 Level Cleveland Center
Tue 10:30:27 AM 42.9692 -83.7469 250° West 354 407 37,400 -750 Descending Cleveland Center
Tue 10:31:27 AM 42.9550 -83.8767 262° West 354 407 36,500 -1,050 Descending Cleveland Center
Tue 10:32:27 AM 42.9408 -84.0094 262° West 354 407 35,300 -1,250 Descending Cleveland Center
Tue 10:33:27 AM 42.9264 -84.1419 262° West 359 413 34,000 -1,150 Descending Cleveland Center
Tue 10:34:27 AM 42.9136 -84.2831 263° West 365 420 33,000 -902 Descending Cleveland Center
Tue 10:35:40 AM 42.8964 -84.4600 262° West 374 430 32,000 -444 Descending Chicago Center
Tue 10:36:42 AM 42.8825 -84.6011 262° West 377 434 32,000  Level Chicago Center
Tue 10:37:44 AM 42.8675 -84.7419 262° West 376 433 32,000  Level Chicago Center
Tue 10:38:45 AM 42.8533 -84.8831 262° West 377 434 32,000  Level Chicago Center
Tue 10:39:47 AM 42.8386 -85.0253 262° West 378 435 32,000  Level Chicago Center
Tue 10:40:49 AM 42.8231 -85.1669 262° West 379 436 32,000 -97 Level Chicago Center
Tue 10:41:51 AM 42.8042 -85.3364 261° West 378 435 31,800 -532 Descending Chicago Center
Tue 10:42:53 AM 42.7892 -85.4778 262° West 378 435 30,900 -927 Descending Chicago Center
Tue 10:43:54 AM 42.7644 -85.6203 257° West 383 441 29,900 -1,024 Descending Chicago Center
Tue 10:44:56 AM 42.7392 -85.7592 256° West 379 436 28,800 -1,790 Descending Chicago Center
Tue 10:45:58 AM 42.7147 -85.8972 256° West 374 430 26,200 -2,661 Descending Chicago Center
Tue 10:47:00 AM 42.6894 -86.0319 256° West 368 423 23,300 -2,829 Descending Chicago Center
Tue 10:48:01 AM 42.6658 -86.1633 256° West 361 415 20,400 -1,951 Descending Chicago Center
Tue 10:49:03 AM 42.6414 -86.2950 256° West 359 413 19,300 -1,258 Descending Chicago Center
Tue 10:50:05 AM 42.6156 -86.4244 255° West 356 410 17,800 -1,790 Descending Chicago Center
Tue 10:51:07 AM 42.5886 -86.5750 256° West 343 395 15,600 -2,000 Descending Chicago Center
Tue 10:52:08 AM 42.5656 -86.6939 255° West 330 380 13,700 -1,854 Descending Chicago Center
Tue 10:53:10 AM 42.5394 -86.8089 253° West 323 372 11,800 -1,742 Descending Chicago Center
Tue 10:54:12 AM 42.5097 -86.9147 249° West 306 352 10,100 -1,073 Descending Chicago Center
Tue 10:55:13 AM 42.4844 -87.0064 250° West 264 304 9,600 -537 Descending Chicago Center
Tue 10:56:15 AM 42.4589 -87.0925 248° West 248 285 9,000 -435 Descending Chicago Center
Tue 10:57:17 AM 42.4364 -87.1783 250° West 245 282 8,700 -732 Descending Chicago Center
Tue 10:58:18 AM 42.3844 -87.2633 230° Southwest 250 288 7,500 -1,073 Descending Chicago Center
Tue 10:59:20 AM 42.3336 -87.3275 223° Southwest 251 289 6,500 -726 Descending Chicago Center
Tue 11:00:22 AM 42.2819 -87.3931 223° Southwest 247 284 6,000 -244 Descending Chicago Center
Tue 11:01:23 AM 42.2308 -87.4567 223° Southwest 250 288 6,000  Level Chicago Center
Tue 11:02:25 AM 42.1817 -87.5197 224° Southwest 247 284 6,000 -823 Level Chicago Center
Tue 11:03:27 AM 42.1328 -87.5844 224° Southwest 247 284 4,300 -1,034 Descending Chicago Center
Tue 11:04:21 AM 42.0833 -87.6500 225° Southwest 238 274 4,000 -611 Descending Chicago TRACON
Tue 11:05:15 AM 42.0500 -87.7167 236° Southwest 208 239 3,200 -889 Descending Chicago TRACON

Login

Don't have an account? Register now (free) for customized features, flight alerts, and more!